Daniel Oduber Quiros International Airport
MRLB : now visible

Airfield :











YOU CAN JOIN US ON...

 
LOGIN :

Register | Disclaimer

   EN    FR    IT 

 









Legend :    VFR   Marginal VFR   IFR   Intensive IFR   Very Intensive IFR
Visi :
Ceiling :
>= 8 km
>= 3000ft
5 to 8 km
1000 to 3000 ft
1500m to 5 km
500 to 1000 ft
800 to 1500m
200 to 500 ft
< 800m
< 200 ft
Symbols :   Thunderstorms  Fog  Heavy snow  Heavy precipitations  Wind > 20 kt






- Airport Elevation : 270 ft
- IATA code : LIR


MRLB - Daniel Oduber Quiros International

CURRENT METAR :
  • 072200Z 07011KT 9999 FEW045 BKN200 29/21 A2987 NOSIG

EXPIRED METARs :
  • 072100Z 08015KT 9999 FEW045 BKN140 29/21 A2987 NOSIG
  • 072000Z 06018KT 9999 FEW040 BKN200 30/20 A2987 NOSIG

TAF MRLB
Valid from the 07 at 18:00 until the 08 at 18:00 UTC


071700Z 0718/0818 10015KT 9999 FEW040 SCT100 TX32/0720Z TN21/0811Z
TEMPO 0718/0806 10015G25KT



MET'MAP, your aeronautical weather chart ! - Copyright ORBIFLY December 2007 - Disclaimer

ORBIFLY MET'MAP TEAM :

Programming & Development : Alexandra Zaïnal
Concept & original design : Baudouin d'Aumeries
Assistance for programming : Marc-Olivier Méhu
Technical & hardware support : Manuel Goepfert

Contact : metmap@orbifly.com




SOURCES & CREDITS :

   NOAA       Earth
Advisory